Time;durP1;ratioP1;P1;durP2;ratioP2;P2;SDS_P1;SDS_P2;PMS_P1;PMS_P2;Temp;Humidity;BMP_temperature;BMP_pressure;BME280_temperature;BME280_humidity;BME280_pressure;Samples;Min_cycle;Max_cycle;Signal;HPM_P1;HPM_P2
2023/08/09 00:00:53;;;;;;;5.43;2.00;;;;;;;11.55;100.00;95919.75;7431281;19;20432;-91
2023/08/09 00:03:20;;;;;;;3.57;2.00;;;;;;;11.56;100.00;95939.06;7427969;19;20436;-91
2023/08/09 00:05:47;;;;;;;4.80;2.00;;;;;;;11.89;100.00;96009.50;7422554;19;20408;-91
2023/08/09 00:08:14;;;;;;;2.87;2.30;;;;;;;10.86;100.00;95872.66;7411164;19;20361;-91
2023/08/09 00:10:42;;;;;;;2.10;1.83;;;;;;;10.15;100.00;95773.75;7400332;19;20464;-91
2023/08/09 00:13:09;;;;;;;4.60;2.10;;;;;;;10.84;100.00;95854.50;7395826;19;20424;-91
2023/08/09 00:15:37;;;;;;;4.87;1.90;;;;;;;11.45;100.00;95930.84;7397344;19;20934;-91
2023/08/09 00:18:04;;;;;;;3.37;2.73;;;;;;;11.04;100.00;95855.38;7399049;19;20384;-90
2023/08/09 00:20:32;;;;;;;3.33;1.83;;;;;;;11.76;100.00;95951.28;7398170;19;20405;-91
2023/08/09 00:22:59;;;;;;;2.00;1.73;;;;;;;10.36;100.00;95749.78;7400923;19;20401;-90
2023/08/09 00:25:26;;;;;;;2.00;1.90;;;;;;;11.05;100.00;95837.63;7400530;19;20384;-90
2023/08/09 00:27:53;;;;;;;2.47;2.20;;;;;;;10.64;100.00;95813.94;7401059;19;20392;-91
2023/08/09 00:30:20;;;;;;;2.73;2.20;;;;;;;11.44;100.00;95952.38;7400605;19;20401;-90
2023/08/09 00:32:47;;;;;;;2.30;2.10;;;;;;;11.05;100.00;95901.88;7395464;19;20493;-90
2023/08/09 00:35:14;;;;;;;2.77;2.00;;;;;;;11.06;100.00;95881.47;7396388;19;20785;-90
2023/08/09 00:37:41;;;;;;;3.20;2.23;;;;;;;11.85;100.00;95985.56;7397351;19;20409;-90
2023/08/09 00:40:11;;;;;;;2.30;1.90;;;;;;;10.57;100.00;95808.47;7400710;19;21011;-90
2023/08/09 00:42:40;;;;;;;2.80;2.20;;;;;;;11.41;100.00;95914.13;7398186;19;20416;-90
2023/08/09 00:45:09;;;;;;;3.37;2.10;;;;;;;11.33;100.00;95917.69;7399890;19;20389;-92
2023/08/09 00:47:36;;;;;;;5.30;2.73;;;;;;;11.58;100.00;95936.06;7396418;19;20420;-91
2023/08/09 00:50:08;;;;;;;4.03;2.67;;;;;;;11.07;100.00;95843.31;7398536;19;20376;-92
2023/08/09 00:52:36;;;;;;;3.23;2.03;;;;;;;11.16;100.00;95849.22;7398317;19;20415;-91
2023/08/09 00:55:04;;;;;;;2.67;2.20;;;;;;;11.02;100.00;95817.91;7401493;19;20401;-91
2023/08/09 00:57:31;;;;;;;9.23;2.90;;;;;;;11.77;100.00;95918.41;7397796;19;20377;-91
2023/08/09 00:59:58;;;;;;;3.43;2.60;;;;;;;11.44;100.00;95865.78;7400497;19;20380;-91
2023/08/09 01:02:26;;;;;;;4.43;2.37;;;;;;;12.16;100.00;95957.53;7401371;19;20412;-91
2023/08/09 01:04:53;;;;;;;3.67;3.27;;;;;;;11.89;100.00;95912.25;7404328;19;20992;-91
2023/08/09 01:07:46;;;;;;;3.60;2.87;;;;;;;12.20;100.00;95947.75;7415416;19;20417;-90
2023/08/09 01:10:22;;;;;;;3.20;2.90;;;;;;;12.20;100.00;95953.81;7415981;19;20391;-90
2023/08/09 01:12:58;;;;;;;5.03;2.40;;;;;;;11.84;100.00;95926.53;7403610;19;20751;-90
2023/08/09 01:15:26;;;;;;;3.73;2.20;;;;;;;11.06;100.00;95825.94;7397820;19;20373;-90
2023/08/09 01:17:55;;;;;;;5.73;3.10;;;;;;;11.43;100.00;95919.06;7396043;19;20385;-91
2023/08/09 01:20:23;;;;;;;2.17;2.07;;;;;;;11.70;100.00;95971.19;7397498;19;20377;-90
2023/08/09 01:22:58;;;;;;;2.63;2.43;;;;;;;11.47;100.00;95922.56;7399645;19;20397;-90
2023/08/09 01:25:25;;;;;;;2.97;2.53;;;;;;;10.69;100.00;95798.97;7398490;19;20381;-90
2023/08/09 01:27:53;;;;;;;4.40;2.43;;;;;;;11.39;100.00;95897.06;7398707;19;20399;-91
2023/08/09 01:30:20;;;;;;;3.53;2.50;;;;;;;11.07;100.00;95878.50;7399150;19;20391;-90
2023/08/09 01:32:47;;;;;;;2.63;2.43;;;;;;;10.50;100.00;95775.81;7399235;19;20434;-90
2023/08/09 01:35:15;;;;;;;3.53;2.40;;;;;;;11.05;100.00;95867.47;7398127;19;20920;-90
2023/08/09 01:38:03;;;;;;;6.93;3.03;;;;;;;11.41;100.00;95910.72;7395147;19;20395;-90
2023/08/09 01:40:31;;;;;;;2.80;2.60;;;;;;;11.58;100.00;95952.72;7399204;19;20941;-90
2023/08/09 01:42:58;;;;;;;2.67;2.47;;;;;;;11.35;100.00;95906.75;7399418;19;20425;-90
2023/08/09 01:45:26;;;;;;;4.40;3.40;;;;;;;11.42;100.00;95922.84;7405035;19;20400;-90
2023/08/09 01:47:53;;;;;;;3.67;2.60;;;;;;;10.74;100.00;95811.91;7393782;19;20904;-90
2023/08/09 01:50:26;;;;;;;4.53;2.50;;;;;;;11.63;100.00;95939.25;7422695;19;20420;-92
2023/08/09 01:52:58;;;;;;;4.70;3.10;;;;;;;10.49;100.00;95769.75;7426231;19;20405;-91
2023/08/09 01:55:26;;;;;;;5.03;2.67;;;;;;;10.55;100.00;95747.25;7415934;19;20401;-90
2023/08/09 01:57:54;;;;;;;3.63;3.00;;;;;;;11.18;100.00;95820.56;7406310;19;20463;-90
2023/08/09 02:00:24;;;;;;;4.03;3.30;;;;;;;11.62;100.00;95868.88;7407334;19;20401;-90
2023/08/09 02:02:52;;;;;;;2.57;2.17;;;;;;;12.03;100.00;95896.69;7405913;19;20456;-90
2023/08/09 02:05:21;;;;;;;4.20;2.77;;;;;;;11.88;100.00;95894.81;7403888;19;20393;-90
2023/08/09 02:07:50;;;;;;;3.97;2.77;;;;;;;11.48;100.00;95789.88;7404465;19;20922;-91
2023/08/09 02:10:17;;;;;;;4.60;2.60;;;;;;;10.85;100.00;95707.19;7404925;19;20397;-90
2023/08/09 02:12:47;;;;;;;2.83;2.63;;;;;;;11.68;100.00;95837.59;7404145;19;20716;-90
2023/08/09 02:15:15;;;;;;;8.27;3.87;;;;;;;11.74;100.00;95844.91;7409283;19;20409;-90
2023/08/09 02:17:45;;;;;;;4.37;2.67;;;;;;;11.21;100.00;95764.28;7419278;19;20401;-91
2023/08/09 02:20:12;;;;;;;4.13;3.73;;;;;;;12.10;100.00;95904.00;7427562;19;20389;-91
2023/08/09 02:22:40;;;;;;;3.10;2.80;;;;;;;12.01;100.00;95898.13;7426279;19;20451;-90
2023/08/09 02:25:12;;;;;;;4.40;3.40;;;;;;;11.51;100.00;95814.91;7429751;19;20384;-90
2023/08/09 02:27:40;;;;;;;3.67;3.10;;;;;;;11.09;100.00;95759.88;7399539;19;20385;-90
2023/08/09 02:30:09;;;;;;;3.20;2.90;;;;;;;11.96;100.00;95885.16;7396645;19;20385;-90
2023/08/09 02:32:36;;;;;;;4.60;4.30;;;;;;;11.64;100.00;95834.88;7396727;19;20412;-90
2023/08/09 02:35:05;;;;;;;5.43;2.93;;;;;;;11.64;100.00;95842.03;7397581;19;20900;-90
2023/08/09 02:37:32;;;;;;;3.70;3.37;;;;;;;11.47;100.00;95820.09;7398459;19;20389;-90
2023/08/09 02:40:19;;;;;;;3.30;3.10;;;;;;;11.75;100.00;95849.13;7398528;19;20741;-89
2023/08/09 02:42:46;;;;;;;4.93;3.40;;;;;;;11.06;100.00;95747.31;7394880;19;20425;-90
2023/08/09 02:45:13;;;;;;;4.20;2.80;;;;;;;11.80;100.00;95854.16;7394260;19;20376;-90
2023/08/09 02:47:40;;;;;;;4.20;3.20;;;;;;;11.54;100.00;95809.69;7391542;19;20745;-90
2023/08/09 02:50:08;;;;;;;5.10;3.57;;;;;;;11.63;100.00;95812.16;7391024;19;20403;-90
2023/08/09 02:52:36;;;;;;;4.97;2.87;;;;;;;11.55;100.00;95805.16;7390973;19;20427;-90
2023/08/09 02:55:06;;;;;;;3.77;2.73;;;;;;;11.42;100.00;95764.78;7393097;19;20388;-90
2023/08/09 02:57:33;;;;;;;3.43;3.20;;;;;;;11.47;100.00;95795.50;7392047;19;20392;-90
2023/08/09 03:00:00;;;;;;;5.37;3.40;;;;;;;11.75;100.00;95819.19;7393506;19;20396;-90
2023/08/09 03:02:27;;;;;;;3.20;2.67;;;;;;;12.24;100.00;95890.28;7390975;19;20523;-90
2023/08/09 03:04:55;;;;;;;4.13;3.43;;;;;;;11.35;100.00;95755.91;7393613;19;20392;-89
2023/08/09 03:07:22;;;;;;;3.67;3.30;;;;;;;11.84;100.00;95835.69;7388629;19;20385;-90
2023/08/09 03:09:49;;;;;;;3.60;3.30;;;;;;;11.22;100.00;95750.75;7393417;19;20480;-90
2023/08/09 03:12:16;;;;;;;3.90;3.10;;;;;;;11.53;100.00;95784.31;7392169;19;20408;-90
2023/08/09 03:14:43;;;;;;;6.03;3.33;;;;;;;11.76;100.00;95815.44;7402285;19;20392;-90
2023/08/09 03:17:11;;;;;;;3.30;3.00;;;;;;;11.98;100.00;95853.78;7399503;19;20389;-90
2023/08/09 03:19:38;;;;;;;3.77;3.43;;;;;;;11.98;100.00;95848.47;7401941;19;20753;-90
2023/08/09 03:22:05;;;;;;;3.90;3.00;;;;;;;11.38;100.00;95761.28;7401152;19;20413;-90
2023/08/09 03:24:33;;;;;;;3.13;2.50;;;;;;;11.23;100.00;95733.75;7403761;19;20900;-90
2023/08/09 03:27:00;;;;;;;3.77;3.27;;;;;;;12.11;100.00;95881.69;7402023;19;20385;-90
2023/08/09 03:29:28;;;;;;;8.57;5.70;;;;;;;11.63;100.00;95804.22;7404727;19;20447;-91
2023/08/09 03:31:56;;;;;;;4.03;3.60;;;;;;;11.19;100.00;95759.34;7401962;19;20443;-90
2023/08/09 03:34:23;;;;;;;3.40;3.10;;;;;;;11.30;100.00;95780.75;7402624;19;20392;-90
2023/08/09 03:36:50;;;;;;;5.20;3.43;;;;;;;11.33;100.00;95792.53;7401495;19;20408;-90
2023/08/09 03:39:17;;;;;;;5.23;3.57;;;;;;;10.78;100.00;95704.34;7400116;19;20460;-90
2023/08/09 03:41:44;;;;;;;4.27;3.67;;;;;;;10.49;100.00;95664.03;7400756;19;20468;-90
2023/08/09 03:44:13;;;;;;;4.37;3.97;;;;;;;11.23;100.00;95786.69;7398731;19;20505;-91
2023/08/09 03:46:40;;;;;;;3.63;3.33;;;;;;;11.51;100.00;95825.50;7401092;19;20751;-90
2023/08/09 03:49:08;;;;;;;3.80;3.50;;;;;;;11.10;100.00;95772.00;7397285;19;20414;-89
2023/08/09 03:51:39;;;;;;;4.50;3.57;;;;;;;10.94;100.00;95747.41;7401499;19;20348;-90
2023/08/09 03:54:06;;;;;;;3.93;3.47;;;;;;;11.46;100.00;95826.50;7400416;19;20381;-89
2023/08/09 03:56:34;;;;;;;3.10;2.80;;;;;;;11.75;100.00;95880.91;7401818;19;20436;-89
2023/08/09 03:59:01;;;;;;;4.70;3.40;;;;;;;11.36;100.00;95815.69;7400973;19;20369;-89
2023/08/09 04:01:28;;;;;;;4.87;4.07;;;;;;;11.60;100.00;95841.94;7401609;19;20380;-89
2023/08/09 04:03:56;;;;;;;4.90;3.67;;;;;;;11.42;100.00;95830.97;7397874;19;20423;-89
2023/08/09 04:06:23;;;;;;;3.40;3.10;;;;;;;11.42;100.00;95823.00;7398259;19;20353;-89
2023/08/09 04:08:50;;;;;;;3.67;3.37;;;;;;;11.80;100.00;95875.34;7396050;19;20375;-89
2023/08/09 04:11:17;;;;;;;4.90;3.37;;;;;;;11.20;100.00;95789.22;7396836;19;20385;-89
2023/08/09 04:13:44;;;;;;;3.67;3.17;;;;;;;11.19;100.00;95796.38;7394728;19;20418;-89
2023/08/09 04:16:11;;;;;;;3.40;2.73;;;;;;;11.33;100.00;95819.00;7396101;19;20381;-89
2023/08/09 04:18:38;;;;;;;4.33;3.47;;;;;;;11.73;100.00;95879.69;7398794;19;20398;-89
2023/08/09 04:21:06;;;;;;;3.73;3.43;;;;;;;11.40;100.00;95833.19;7400023;19;20395;-89
2023/08/09 04:23:34;;;;;;;4.80;3.87;;;;;;;11.62;100.00;95862.78;7396176;19;20412;-89
2023/08/09 04:26:02;;;;;;;4.80;3.50;;;;;;;11.38;100.00;95838.06;7400073;19;20927;-89
2023/08/09 04:28:29;;;;;;;3.50;3.30;;;;;;;11.43;100.00;95844.97;7394940;19;20412;-89
2023/08/09 04:30:56;;;;;;;3.50;3.00;;;;;;;11.47;100.00;95851.84;7400921;19;20379;-89
2023/08/09 04:33:23;;;;;;;5.67;3.73;;;;;;;9.97;100.00;95624.59;7397057;19;20396;-89
2023/08/09 04:35:50;;;;;;;3.57;3.30;;;;;;;10.98;100.00;95780.03;7400273;19;20365;-89
2023/08/09 04:38:17;;;;;;;3.70;3.40;;;;;;;10.53;100.00;95714.31;7402151;19;20380;-89
2023/08/09 04:40:45;;;;;;;3.33;3.13;;;;;;;11.74;100.00;95883.88;7401310;19;20762;-89
2023/08/09 04:43:13;;;;;;;3.50;3.20;;;;;;;11.39;100.00;95829.00;7397369;19;20444;-90
2023/08/09 04:45:41;;;;;;;3.67;3.40;;;;;;;11.21;100.00;95809.28;7400812;19;20364;-90
2023/08/09 04:48:15;;;;;;;4.10;3.70;;;;;;;11.48;100.00;95831.44;7395472;19;20769;-89
2023/08/09 04:50:42;;;;;;;4.20;3.23;;;;;;;11.04;100.00;95764.66;7400804;19;20388;-89
2023/08/09 04:53:09;;;;;;;5.13;4.10;;;;;;;11.45;100.00;95813.63;7397407;19;20424;-90
2023/08/09 04:55:36;;;;;;;3.47;3.17;;;;;;;10.60;100.00;95691.50;7397610;19;20710;-90
2023/08/09 04:58:03;;;;;;;4.80;3.10;;;;;;;11.74;100.00;95860.78;7399706;19;20404;-90
2023/08/09 05:00:30;;;;;;;4.20;3.40;;;;;;;11.75;100.00;95859.72;7397289;19;20389;-90
2023/08/09 05:02:57;;;;;;;3.60;3.13;;;;;;;11.82;100.00;95878.41;7396031;19;20397;-90
2023/08/09 05:05:24;;;;;;;3.70;3.30;;;;;;;11.52;100.00;95827.03;7399543;19;20392;-90
2023/08/09 05:07:51;;;;;;;3.70;3.30;;;;;;;11.04;100.00;95751.44;7395119;19;20417;-90
2023/08/09 05:10:18;;;;;;;4.03;3.37;;;;;;;11.55;100.00;95835.03;7397718;19;20371;-90
2023/08/09 05:12:45;;;;;;;4.87;3.47;;;;;;;11.79;100.00;95870.41;7398168;19;20416;-90
2023/08/09 05:15:12;;;;;;;4.73;3.37;;;;;;;10.62;100.00;95691.91;7397167;19;20381;-90
2023/08/09 05:17:39;;;;;;;8.40;3.43;;;;;;;11.20;100.00;95779.41;7395368;19;20397;-90
2023/08/09 05:20:07;;;;;;;7.43;3.37;;;;;;;11.97;100.00;95882.16;7394650;19;20385;-90
2023/08/09 05:22:34;;;;;;;3.90;3.20;;;;;;;11.71;100.00;95852.78;7393745;19;20400;-90
2023/08/09 05:25:01;;;;;;;4.13;3.70;;;;;;;11.62;100.00;95850.34;7396479;19;20416;-90
2023/08/09 05:27:28;;;;;;;3.53;3.23;;;;;;;10.68;100.00;95689.00;7394454;19;20403;-91
2023/08/09 05:29:55;;;;;;;3.53;3.07;;;;;;;10.99;100.00;95747.19;7394637;19;20383;-91
2023/08/09 05:32:22;;;;;;;3.03;2.73;;;;;;;11.40;100.00;95811.25;7395026;19;20413;-90
2023/08/09 05:34:49;;;;;;;3.70;3.40;;;;;;;11.09;100.00;95757.25;7396419;19;20384;-90
2023/08/09 05:37:16;;;;;;;5.40;3.70;;;;;;;10.73;100.00;95696.69;7399914;19;20377;-90
2023/08/09 05:39:43;;;;;;;6.70;3.80;;;;;;;10.98;100.00;95721.06;7396529;19;20987;-90
2023/08/09 05:42:13;;;;;;;3.40;3.10;;;;;;;11.43;100.00;95797.31;7397881;19;20404;-89
2023/08/09 05:44:40;;;;;;;4.07;3.63;;;;;;;11.74;100.00;95844.91;7397207;19;20467;-89
2023/08/09 05:47:07;;;;;;;3.03;2.83;;;;;;;10.81;100.00;95704.44;7399227;19;20385;-89
2023/08/09 05:49:37;;;;;;;3.63;3.33;;;;;;;10.82;100.00;95690.13;7396837;19;20749;-89
2023/08/09 05:52:05;;;;;;;5.40;4.10;;;;;;;11.34;100.00;95784.25;7402408;19;20423;-90
2023/08/09 05:54:32;;;;;;;4.73;4.33;;;;;;;11.58;100.00;95798.41;7397189;19;21005;-89
2023/08/09 05:57:01;;;;;;;7.20;6.73;;;;;;;11.81;100.00;95829.22;7398408;19;20381;-90
2023/08/09 05:59:28;;;;;;;7.00;6.60;;;;;;;11.07;100.00;95722.41;7397547;19;20416;-90
2023/08/09 06:01:56;;;;;;;18.03;16.63;;;;;;;11.59;100.00;95781.38;7396299;19;20399;-90
2023/08/09 06:04:24;;;;;;;15.03;13.87;;;;;;;11.65;100.00;95804.63;7398846;19;20392;-91
2023/08/09 06:06:51;;;;;;;10.57;9.63;;;;;;;11.37;100.00;95773.00;7397131;19;20388;-92
2023/08/09 06:09:18;;;;;;;12.80;11.67;;;;;;;11.32;100.00;95752.06;7396778;19;20392;-92
2023/08/09 06:11:45;;;;;;;12.03;11.07;;;;;;;11.28;100.00;95738.00;7395646;19;20390;-92
2023/08/09 06:14:12;;;;;;;11.33;10.23;;;;;;;11.55;100.00;95781.31;7398449;19;20497;-92
2023/08/09 06:16:43;;;;;;;4.60;4.30;;;;;;;11.29;100.00;95738.78;7395753;19;20393;-91
2023/08/09 06:19:11;;;;;;;10.67;9.67;;;;;;;11.79;100.00;95815.56;7397666;19;20403;-90
2023/08/09 06:21:39;;;;;;;10.93;9.93;;;;;;;11.91;100.00;95822.59;7395617;19;20377;-91
2023/08/09 06:24:06;;;;;;;12.53;11.43;;;;;;;11.93;100.00;95835.50;7394019;19;20393;-91
2023/08/09 06:26:33;;;;;;;9.40;8.67;;;;;;;11.75;100.00;95825.28;7398410;19;20380;-91
2023/08/09 06:29:05;;;;;;;9.33;8.43;;;;;;;11.97;100.00;95850.34;7397482;19;20364;-91
2023/08/09 06:31:32;;;;;;;6.33;5.80;;;;;;;12.11;100.00;95879.81;7394948;19;20456;-90
2023/08/09 06:33:59;;;;;;;8.60;7.80;;;;;;;11.92;100.00;95834.75;7390495;19;20396;-90
2023/08/09 06:36:27;;;;;;;5.90;5.50;;;;;;;12.38;100.00;95899.28;7393230;19;20720;-90
2023/08/09 06:38:54;;;;;;;6.87;3.07;;;;;;;12.35;100.00;95904.53;7391972;19;20389;-90
2023/08/09 06:41:21;;;;;;;5.53;5.13;;;;;;;11.94;100.00;95837.03;7391393;19;20383;-91
2023/08/09 06:43:48;;;;;;;7.43;6.93;;;;;;;11.75;100.00;95825.28;7389961;19;20412;-90
2023/08/09 06:46:15;;;;;;;9.67;8.77;;;;;;;11.89;100.00;95838.09;7391995;19;20388;-90
2023/08/09 06:48:42;;;;;;;10.13;9.30;;;;;;;12.19;100.00;95874.66;7404810;19;20412;-90
2023/08/09 06:51:09;;;;;;;11.10;10.00;;;;;;;11.84;100.00;95833.03;7401887;19;20381;-90
2023/08/09 06:53:40;;;;;;;4.20;3.87;;;;;;;11.91;100.00;95853.63;7402105;19;20412;-90
2023/08/09 06:56:07;;;;;;;5.03;3.43;;;;;;;10.75;100.00;95678.59;7404442;19;20914;-91
2023/08/09 06:58:34;;;;;;;7.57;7.03;;;;;;;11.40;100.00;95784.78;7409135;19;20376;-90
2023/08/09 07:01:03;;;;;;;6.50;6.10;;;;;;;11.10;100.00;95732.31;7404205;19;20833;-90
2023/08/09 07:03:30;;;;;;;4.70;4.30;;;;;;;11.47;100.00;95782.25;7407354;19;20440;-90
2023/08/09 07:05:57;;;;;;;3.63;3.43;;;;;;;10.62;100.00;95649.63;7404097;19;20436;-90
2023/08/09 07:08:24;;;;;;;3.20;2.90;;;;;;;11.74;100.00;95817.66;7408876;19;20428;-90
2023/08/09 07:10:51;;;;;;;4.37;3.10;;;;;;;11.61;100.00;95813.59;7402061;19;20397;-91
2023/08/09 07:13:19;;;;;;;3.90;3.10;;;;;;;10.67;100.00;95656.50;7402465;19;20416;-90
2023/08/09 07:15:46;;;;;;;4.23;3.80;;;;;;;11.43;100.00;95789.38;7408089;19;20404;-90
2023/08/09 07:18:13;;;;;;;3.07;2.87;;;;;;;11.83;100.00;95836.81;7407706;19;20385;-90
2023/08/09 07:20:41;;;;;;;10.00;2.90;;;;;;;10.49;100.00;95644.75;7405609;19;20412;-90
2023/08/09 07:23:08;;;;;;;4.90;4.40;;;;;;;11.70;100.00;95811.53;7399653;19;20435;-90
2023/08/09 07:25:34;;;;;;;6.90;6.20;;;;;;;11.75;100.00;95827.13;7402312;19;20372;-90
2023/08/09 07:28:02;;;;;;;15.67;14.63;;;;;;;11.09;100.00;95728.16;7400546;19;20904;-90
2023/08/09 07:30:28;;;;;;;6.10;5.77;;;;;;;11.63;100.00;95811.38;7402202;19;20384;-90
2023/08/09 07:32:55;;;;;;;9.27;8.57;;;;;;;11.47;100.00;95785.69;7399072;19;20424;-90
2023/08/09 07:35:23;;;;;;;5.07;4.67;;;;;;;11.72;100.00;95802.13;7400224;19;20728;-90
2023/08/09 07:37:50;;;;;;;4.77;4.00;;;;;;;11.18;100.00;95727.94;7400076;19;20455;-91
2023/08/09 07:40:17;;;;;;;5.70;4.43;;;;;;;11.09;100.00;95714.91;7403835;19;20955;-90
2023/08/09 07:42:45;;;;;;;5.83;5.27;;;;;;;11.12;100.00;95718.75;7399798;19;20428;-90
2023/08/09 07:45:12;;;;;;;3.43;3.13;;;;;;;11.48;100.00;95771.31;7416019;19;20855;-90
2023/08/09 07:47:41;;;;;;;5.40;3.60;;;;;;;12.70;100.00;95947.69;7424907;19;20516;-90
2023/08/09 07:50:08;;;;;;;4.70;3.20;;;;;;;12.28;100.00;95899.84;7422442;19;20380;-90
2023/08/09 07:52:35;;;;;;;5.50;4.00;;;;;;;11.13;100.00;95720.28;7419608;19;20413;-90
2023/08/09 07:55:04;;;;;;;4.27;3.90;;;;;;;12.65;100.00;95960.44;7409204;19;20456;-90
2023/08/09 07:57:33;;;;;;;5.03;4.53;;;;;;;11.10;100.00;95758.00;7403020;19;20388;-90
2023/08/09 08:00:05;;;;;;;5.97;5.43;;;;;;;12.10;100.00;95902.13;7401490;19;20456;-91
2023/08/09 08:02:41;;;;;;;6.77;3.73;;;;;;;11.38;100.00;95801.00;7400116;19;20409;-90
2023/08/09 08:05:11;;;;;;;4.70;4.17;;;;;;;11.21;100.00;95786.22;7410475;19;20376;-90
2023/08/09 08:07:40;;;;;;;3.47;3.17;;;;;;;11.11;100.00;95765.59;7434432;19;20392;-89
2023/08/09 08:10:14;;;;;;;5.63;4.40;;;;;;;11.83;100.00;95842.09;7429001;19;20393;-88
2023/08/09 08:12:44;;;;;;;3.97;3.50;;;;;;;12.58;100.00;95934.56;7423938;19;20424;-91
2023/08/09 08:15:14;;;;;;;3.17;2.90;;;;;;;12.19;100.00;95880.72;7401456;19;20446;-90
2023/08/09 08:17:42;;;;;;;5.40;3.80;;;;;;;12.49;100.00;95912.78;7397427;19;20410;-90
2023/08/09 08:20:15;;;;;;;3.90;3.60;;;;;;;12.54;100.00;95901.13;7399504;19;20417;-90
2023/08/09 08:22:43;;;;;;;4.27;3.57;;;;;;;12.15;100.00;95848.06;7396583;19;20492;-90
2023/08/09 08:25:12;;;;;;;6.20;4.17;;;;;;;13.17;100.00;95970.56;7399240;19;20409;-90
2023/08/09 08:27:45;;;;;;;3.53;3.23;;;;;;;12.63;100.00;95889.19;7398949;19;20416;-91
2023/08/09 08:30:17;;;;;;;4.10;3.17;;;;;;;12.13;100.00;95819.28;7398724;19;20381;-90
2023/08/09 08:32:48;;;;;;;5.37;4.90;;;;;;;12.76;100.00;95919.00;7400564;19;20499;-91
2023/08/09 08:35:20;;;;;;;3.60;3.33;;;;;;;12.83;100.00;95948.31;7402039;19;20410;-90
2023/08/09 08:37:49;;;;;;;4.00;3.43;;;;;;;12.48;100.00;95879.41;7399416;19;20467;-90
2023/08/09 08:40:19;;;;;;;4.10;3.70;;;;;;;12.58;100.00;95894.00;7400210;19;20428;-90
2023/08/09 08:42:48;;;;;;;4.53;4.13;;;;;;;13.08;100.00;95945.34;7398746;19;20960;-90
2023/08/09 08:45:16;;;;;;;3.27;2.90;;;;;;;12.69;100.00;95898.41;7402066;19;20377;-91
2023/08/09 08:47:45;;;;;;;5.07;3.20;;;;;;;13.13;100.00;95967.09;7399517;19;20405;-91
2023/08/09 08:50:14;;;;;;;3.33;2.93;;;;;;;12.02;100.00;95801.63;7396457;19;20385;-90
2023/08/09 08:52:44;;;;;;;3.40;3.10;;;;;;;12.53;100.00;95867.75;7396795;19;20440;-91
2023/08/09 08:55:16;;;;;;;3.30;3.00;;;;;;;12.16;100.00;95830.31;7400620;19;20917;-90
2023/08/09 08:57:46;;;;;;;2.60;2.40;;;;;;;12.87;100.00;95962.41;7399931;19;20365;-91
2023/08/09 09:00:17;;;;;;;3.33;2.67;;;;;;;12.37;100.00;95907.59;7404019;19;20406;-91
2023/08/09 09:02:47;;;;;;;3.50;2.87;;;;;;;12.13;100.00;95858.25;7395578;19;20416;-91
2023/08/09 09:05:18;;;;;;;3.00;2.50;;;;;;;12.78;100.00;95961.09;7399765;19;20376;-91
2023/08/09 09:07:50;;;;;;;3.77;2.70;;;;;;;11.81;100.00;95808.03;7394578;19;20379;-91
2023/08/09 09:10:20;;;;;;;2.90;2.70;;;;;;;11.40;100.00;95756.44;7391072;19;20387;-91
2023/08/09 09:12:58;;;;;;;3.73;2.70;;;;;;;12.90;100.00;95963.59;7393890;19;20948;-91
2023/08/09 09:15:26;;;;;;;3.30;3.00;;;;;;;12.75;100.00;95962.56;7395080;19;20388;-91
2023/08/09 09:17:54;;;;;;;2.50;2.30;;;;;;;13.00;100.00;95971.00;7393840;19;20896;-91
2023/08/09 09:33:51;;;;;;;3.30;2.27;;;;;;;13.03;100.00;95840.25;7392950;19;20964;-91
2023/08/09 09:37:17;;;;;;;2.83;2.53;;;;;;;14.39;100.00;96014.00;7390035;19;20767;-91
2023/08/09 12:16:10;;;;;;;2.70;1.20;;;;;;;17.38;100.00;96062.16;7403628;19;20389;-91
2023/08/09 12:18:41;;;;;;;2.80;1.43;;;;;;;16.89;100.00;96072.59;7401291;19;20730;-91
2023/08/09 12:21:08;;;;;;;1.23;1.13;;;;;;;15.49;100.00;95937.38;7401383;19;20413;-90
2023/08/09 12:23:36;;;;;;;2.60;1.43;;;;;;;16.36;100.00;95999.00;7395651;19;20408;-91
2023/08/09 12:26:04;;;;;;;2.50;2.30;;;;;;;16.44;100.00;95891.19;7401643;19;20469;-91
2023/08/09 12:28:31;;;;;;;2.33;1.77;;;;;;;17.70;100.00;96035.53;7397739;19;20399;-91
2023/08/09 12:30:59;;;;;;;1.73;1.63;;;;;;;17.83;100.00;96027.91;7395434;19;20456;-91
2023/08/09 12:33:27;;;;;;;1.53;1.43;;;;;;;17.71;100.00;96058.44;7395706;19;20430;-91
2023/08/09 12:35:54;;;;;;;1.40;1.30;;;;;;;17.78;100.00;96048.91;7423418;19;20377;-91
2023/08/09 14:03:46;;;;;;;4.40;2.80;;;;;;;18.68;100.00;96115.50;7400895;19;20923;-92
2023/08/09 14:06:14;;;;;;;1.47;1.37;;;;;;;18.52;100.00;96145.34;7399341;19;20397;-92
2023/08/09 14:08:42;;;;;;;1.50;1.27;;;;;;;17.39;100.00;95977.38;7398357;19;20383;-92
2023/08/09 14:11:10;;;;;;;2.73;1.30;;;;;;;19.11;100.00;96143.03;7396110;19;20377;-91
2023/08/09 14:13:37;;;;;;;2.57;1.80;;;;;;;18.19;100.00;95939.63;7396705;19;20408;-92
2023/08/09 14:16:04;;;;;;;2.33;1.40;;;;;;;19.98;100.00;96161.16;7395719;19;20377;-91
2023/08/09 14:18:33;;;;;;;1.37;1.27;;;;;;;18.23;100.00;96040.16;7395296;19;20381;-92
2023/08/09 14:21:00;;;;;;;1.20;1.10;;;;;;;18.84;100.00;96027.50;7395834;19;20385;-91
2023/08/09 14:23:28;;;;;;;1.40;1.30;;;;;;;19.12;96.60;96071.44;7393839;19;20936;-91
2023/08/09 14:25:55;;;;;;;2.00;1.80;;;;;;;19.75;97.35;96113.34;7399179;19;20388;-91
2023/08/09 14:28:22;;;;;;;1.30;1.20;;;;;;;18.26;94.15;96098.28;7398270;19;20392;-90
2023/08/09 14:30:49;;;;;;;1.30;1.20;;;;;;;18.52;100.00;96080.31;7399232;19;20413;-90
2023/08/09 14:33:20;;;;;;;2.17;1.10;;;;;;;19.19;100.00;96189.34;7397693;19;20416;-90
2023/08/09 14:36:03;;;;;;;1.33;1.20;;;;;;;19.59;94.58;96155.97;7401268;19;20737;-91
2023/08/09 14:38:30;;;;;;;1.30;1.20;;;;;;;18.50;97.58;96106.69;7393984;19;20381;-91
2023/08/09 14:40:57;;;;;;;1.50;1.40;;;;;;;17.86;93.78;96000.38;7395745;19;20376;-91
2023/08/09 14:43:24;;;;;;;1.77;1.30;;;;;;;19.37;93.61;96125.75;7397638;19;20824;-91
2023/08/09 14:45:54;;;;;;;1.27;1.17;;;;;;;18.06;94.67;96075.72;7395239;19;20400;-91
2023/08/09 14:48:22;;;;;;;1.53;1.43;;;;;;;18.35;91.84;96127.34;7397391;19;20405;-91
2023/08/09 14:50:49;;;;;;;1.33;1.23;;;;;;;18.00;88.60;96069.19;7394365;19;20456;-91
2023/08/09 14:53:17;;;;;;;1.33;1.23;;;;;;;16.04;87.75;95888.69;7396956;19;20441;-91
2023/08/09 14:55:45;;;;;;;1.47;1.37;;;;;;;17.96;88.26;96180.78;7398721;19;20392;-90
2023/08/09 14:58:16;;;;;;;1.40;1.30;;;;;;;18.39;91.46;96215.69;7410110;19;20376;-91
2023/08/09 15:00:47;;;;;;;1.43;1.33;;;;;;;19.07;85.65;96214.63;7403457;19;20928;-91
2023/08/09 15:03:14;;;;;;;1.50;1.40;;;;;;;18.56;91.63;96188.97;7404759;19;20432;-90
2023/08/09 15:05:42;;;;;;;1.40;1.30;;;;;;;17.60;89.57;96110.31;7395616;19;20471;-90
2023/08/09 15:08:09;;;;;;;1.87;1.43;;;;;;;18.04;88.80;96082.59;7396997;19;20376;-90
2023/08/09 15:10:37;;;;;;;4.40;1.50;;;;;;;19.09;92.53;96225.72;7399206;19;20893;-90
2023/08/09 15:13:08;;;;;;;2.33;1.60;;;;;;;19.37;95.13;96210.78;7403264;19;20908;-91
2023/08/09 15:15:35;;;;;;;1.67;1.20;;;;;;;19.55;84.59;96135.66;7404038;19;20412;-91
2023/08/09 15:18:03;;;;;;;1.20;1.10;;;;;;;18.21;82.52;96103.25;7409720;19;20424;-90
2023/08/09 15:20:31;;;;;;;2.20;1.10;;;;;;;19.14;84.20;96112.03;7405903;19;21029;-90
2023/08/09 15:22:59;;;;;;;1.73;1.40;;;;;;;19.09;84.15;96157.97;7410241;19;20420;-90
2023/08/09 15:25:27;;;;;;;1.73;1.60;;;;;;;19.34;80.78;96120.38;7401945;19;20381;-90
2023/08/09 15:27:54;;;;;;;1.60;1.50;;;;;;;18.93;77.99;96104.78;7408897;19;20743;-90
2023/08/09 15:30:22;;;;;;;1.70;1.17;;;;;;;19.51;83.68;96183.94;7401523;19;20404;-92
2023/08/09 15:32:54;;;;;;;6.30;1.37;;;;;;;18.87;81.65;96091.03;7410054;19;20405;-90
2023/08/09 15:35:22;;;;;;;1.57;1.40;;;;;;;19.22;79.90;96147.59;7407184;19;20408;-90
2023/08/09 15:37:50;;;;;;;1.70;1.60;;;;;;;19.84;75.55;96198.03;7403436;19;20393;-90
2023/08/09 15:40:18;;;;;;;1.37;1.27;;;;;;;19.53;77.82;96229.91;7401139;19;20374;-90
2023/08/09 15:42:46;;;;;;;1.70;1.60;;;;;;;19.39;77.79;96189.72;7404113;19;20413;-91
2023/08/09 15:45:14;;;;;;;2.93;1.60;;;;;;;19.72;76.69;96148.25;7402716;19;20456;-90
2023/08/09 15:47:41;;;;;;;1.77;1.63;;;;;;;19.96;73.72;96160.78;7411317;19;20380;-90